createdAt,value
2018-12-12T00:00:03.427Z,3.80
2018-12-12T00:02:29.596Z,3.90
2018-12-12T00:04:55.721Z,4.00
2018-12-12T00:07:21.936Z,3.90
2018-12-12T00:09:48.218Z,3.90
2018-12-12T00:12:14.404Z,3.90
2018-12-12T00:14:40.533Z,3.90
2018-12-12T00:17:06.742Z,3.90
2018-12-12T00:19:32.888Z,3.90
2018-12-12T00:21:58.996Z,3.90
2018-12-12T00:24:25.107Z,3.90
2018-12-12T00:26:51.243Z,3.90
2018-12-12T00:29:17.376Z,3.80
2018-12-12T00:31:43.510Z,3.80
2018-12-12T00:34:09.712Z,3.70
2018-12-12T00:36:35.871Z,3.80
2018-12-12T00:39:05.024Z,3.80
2018-12-12T00:41:31.245Z,3.80
2018-12-12T00:43:57.427Z,3.80
2018-12-12T00:46:23.754Z,3.80
2018-12-12T00:48:49.931Z,3.80
2018-12-12T00:51:16.084Z,3.80
2018-12-12T00:53:42.215Z,3.80
2018-12-12T00:56:08.367Z,3.80
2018-12-12T00:58:34.589Z,3.80
2018-12-12T01:01:00.855Z,3.80
2018-12-12T01:03:26.978Z,3.90
2018-12-12T01:05:53.122Z,3.80
2018-12-12T01:08:19.271Z,3.80
2018-12-12T01:10:47.417Z,3.80
2018-12-12T01:13:13.593Z,3.80
2018-12-12T01:15:39.737Z,3.80
2018-12-12T01:18:05.893Z,3.70
2018-12-12T01:20:32.015Z,3.70
2018-12-12T01:22:58.108Z,3.80
2018-12-12T01:25:24.380Z,3.80
2018-12-12T01:27:50.497Z,3.80
2018-12-12T01:30:16.677Z,3.80
2018-12-12T01:32:42.827Z,3.70
2018-12-12T01:35:08.929Z,3.80
2018-12-12T01:37:35.283Z,3.80
2018-12-12T01:40:01.667Z,3.70
2018-12-12T01:42:27.869Z,3.70
2018-12-12T01:44:54.086Z,3.70
2018-12-12T01:47:27.211Z,3.80
2018-12-12T01:49:53.368Z,3.80
2018-12-12T01:52:19.542Z,3.80
2018-12-12T01:54:45.707Z,3.80
2018-12-12T01:57:11.814Z,3.80
2018-12-12T01:59:37.972Z,3.70
2018-12-12T02:02:04.337Z,3.80
2018-12-12T02:04:30.526Z,3.80
2018-12-12T02:06:56.740Z,3.80
2018-12-12T02:09:22.934Z,3.80
2018-12-12T02:11:49.085Z,3.80
2018-12-12T02:21:15.153Z,3.80
2018-12-12T02:23:41.378Z,3.80
2018-12-12T02:26:07.626Z,3.80
2018-12-12T02:28:40.761Z,3.80
2018-12-12T02:31:06.906Z,3.70
2018-12-12T02:33:33.266Z,3.70
2018-12-12T02:35:59.416Z,3.70
2018-12-12T02:38:25.726Z,3.70
2018-12-12T02:40:51.940Z,3.80
2018-12-12T02:43:18.102Z,3.70
2018-12-12T02:45:44.235Z,3.70
2018-12-12T02:48:10.449Z,3.70
2018-12-12T02:50:36.646Z,3.70
2018-12-12T02:53:02.932Z,3.80
2018-12-12T02:55:29.228Z,3.70
2018-12-12T02:57:55.330Z,3.80
2018-12-12T03:00:21.458Z,3.80
2018-12-12T03:02:54.515Z,3.90
2018-12-12T03:05:20.672Z,3.80
2018-12-12T03:07:46.767Z,3.80
2018-12-12T03:10:12.971Z,3.70
2018-12-12T03:12:39.468Z,3.80
2018-12-12T03:15:05.911Z,3.80
2018-12-12T03:17:32.296Z,3.80
2018-12-12T03:19:58.383Z,3.90
2018-12-12T03:22:24.503Z,3.90
2018-12-12T03:24:50.693Z,3.90
2018-12-12T03:27:17.068Z,4.00
2018-12-12T03:29:50.292Z,4.00
2018-12-12T03:32:16.396Z,3.90
2018-12-12T03:34:42.646Z,3.90
2018-12-12T03:37:08.799Z,3.90
2018-12-12T03:39:34.997Z,3.80
2018-12-12T03:42:01.120Z,3.80
2018-12-12T03:44:27.289Z,3.80
2018-12-12T03:46:53.381Z,3.80
2018-12-12T03:49:19.507Z,3.80
2018-12-12T03:51:52.420Z,3.80
2018-12-12T03:54:25.513Z,3.70
2018-12-12T03:56:58.624Z,3.80
2018-12-12T03:59:24.743Z,3.80
2018-12-12T04:01:50.918Z,3.80
2018-12-12T04:04:17.093Z,3.80
2018-12-12T04:06:43.264Z,3.80
2018-12-12T04:09:09.469Z,3.80
2018-12-12T04:11:35.620Z,3.80
2018-12-12T04:14:01.883Z,3.80
2018-12-12T04:16:28.521Z,3.80
2018-12-12T04:19:01.704Z,3.80
2018-12-12T04:21:27.823Z,3.70
2018-12-12T04:23:53.971Z,3.80
2018-12-12T04:26:20.183Z,3.80
2018-12-12T04:28:46.321Z,3.70
2018-12-12T04:31:12.472Z,3.70
2018-12-12T04:33:38.582Z,3.70
2018-12-12T04:36:04.867Z,3.70
2018-12-12T04:38:31.047Z,3.80
2018-12-12T04:40:57.202Z,3.80
2018-12-12T04:43:23.343Z,3.80
2018-12-12T04:45:49.561Z,3.90
2018-12-12T04:48:15.671Z,3.90
2018-12-12T04:50:41.891Z,3.90
2018-12-12T04:53:08.058Z,3.90
2018-12-12T04:55:34.207Z,3.90
2018-12-12T04:58:00.379Z,3.90
2018-12-12T05:00:26.531Z,3.90
2018-12-12T05:02:53.011Z,4.00
2018-12-12T05:05:19.141Z,3.90
2018-12-12T05:07:45.348Z,3.90
2018-12-12T05:10:11.503Z,3.80
2018-12-12T05:12:37.638Z,3.80
2018-12-12T05:15:04.085Z,3.90
2018-12-12T05:17:30.304Z,3.90
2018-12-12T05:19:57.307Z,3.90
2018-12-12T05:22:23.454Z,3.90
2018-12-12T05:24:49.565Z,3.90
2018-12-12T05:27:15.704Z,3.80
2018-12-12T05:29:41.815Z,3.80
2018-12-12T05:32:07.897Z,3.90
2018-12-12T05:34:34.038Z,3.90
2018-12-12T05:37:00.161Z,4.00
2018-12-12T05:39:26.381Z,3.90
2018-12-12T05:41:52.505Z,3.80
2018-12-12T05:44:18.730Z,3.80
2018-12-12T05:46:44.862Z,3.80
2018-12-12T05:49:11.003Z,3.90
2018-12-12T05:51:37.182Z,3.90
2018-12-12T05:54:03.334Z,3.80
2018-12-12T05:56:29.458Z,3.70
2018-12-12T05:58:55.552Z,3.70
2018-12-12T06:01:21.695Z,3.70
2018-12-12T06:03:47.914Z,3.80
2018-12-12T06:06:14.131Z,3.70
2018-12-12T06:08:40.239Z,3.70
2018-12-12T06:11:06.420Z,3.70
2018-12-12T06:13:32.605Z,3.80
2018-12-12T06:15:58.705Z,3.70
2018-12-12T06:18:24.859Z,3.70
2018-12-12T06:20:51.033Z,3.70
2018-12-12T06:23:17.216Z,3.70
2018-12-12T06:25:43.379Z,3.60
2018-12-12T06:28:09.502Z,3.60
2018-12-12T06:30:42.538Z,3.60
2018-12-12T06:33:08.660Z,3.50
2018-12-12T06:35:34.821Z,3.60
2018-12-12T06:38:00.990Z,3.50
2018-12-12T06:40:27.172Z,3.60
2018-12-12T06:42:53.340Z,3.60
2018-12-12T06:45:19.484Z,3.60
2018-12-12T06:47:45.663Z,3.50
2018-12-12T06:50:11.800Z,3.60
2018-12-12T06:52:38.013Z,3.60
2018-12-12T06:55:04.202Z,3.60
2018-12-12T06:57:37.190Z,3.60
2018-12-12T07:00:04.971Z,3.60
2018-12-12T07:02:31.178Z,3.60
2018-12-12T07:04:57.293Z,3.60
2018-12-12T07:07:23.546Z,3.70
2018-12-12T07:09:49.754Z,3.80
2018-12-12T07:12:22.721Z,3.80
2018-12-12T07:14:49.013Z,3.70
2018-12-12T07:17:22.171Z,3.60
2018-12-12T07:19:48.346Z,3.70
2018-12-12T07:22:14.510Z,3.70
2018-12-12T07:24:47.419Z,3.70
2018-12-12T07:27:23.628Z,3.80
2018-12-12T07:30:00.403Z,3.70
2018-12-12T07:32:31.665Z,3.70
2018-12-12T07:35:05.588Z,3.70
2018-12-12T07:37:31.915Z,3.70
2018-12-12T07:40:03.968Z,3.60
2018-12-12T07:42:41.745Z,3.80
2018-12-12T07:48:11.924Z,3.60
2018-12-12T07:50:46.012Z,3.70
2018-12-12T07:53:20.335Z,3.60
2018-12-12T07:55:51.676Z,3.60
2018-12-12T07:58:30.121Z,3.60
2018-12-12T08:01:18.467Z,3.60
2018-12-12T08:03:56.900Z,3.60
2018-12-12T08:06:36.169Z,3.60
2018-12-12T08:09:15.427Z,3.60
2018-12-12T08:11:54.702Z,3.50
2018-12-12T08:14:31.345Z,3.60
2018-12-12T08:16:59.827Z,3.50
2018-12-12T08:19:43.071Z,3.50
2018-12-12T08:22:23.497Z,3.50
2018-12-12T08:25:04.247Z,3.50
2018-12-12T08:27:47.080Z,3.40
2018-12-12T08:30:44.246Z,3.40
2018-12-12T08:33:11.529Z,3.40
2018-12-12T08:35:38.027Z,3.40
2018-12-12T08:38:04.357Z,3.40
2018-12-12T08:40:30.531Z,3.40
2018-12-12T08:42:56.722Z,3.40
2018-12-12T08:45:22.833Z,3.40
2018-12-12T08:47:55.883Z,3.40
2018-12-12T08:50:21.971Z,3.40
2018-12-12T08:52:48.148Z,3.40
2018-12-12T08:55:17.580Z,3.50
2018-12-12T08:57:42.538Z,3.60
2018-12-12T09:00:08.968Z,3.70
2018-12-12T09:02:35.194Z,3.60
2018-12-12T09:05:01.377Z,3.70
2018-12-12T09:07:27.560Z,3.70
2018-12-12T09:09:53.672Z,3.70
2018-12-12T09:12:19.851Z,3.80
2018-12-12T09:14:45.987Z,3.80
2018-12-12T09:17:12.143Z,3.80
2018-12-12T09:19:38.316Z,3.70
2018-12-12T09:22:04.502Z,3.80
2018-12-12T09:24:30.789Z,3.80
2018-12-12T09:26:56.929Z,3.80
2018-12-12T09:29:23.043Z,3.80
2018-12-12T09:31:49.245Z,3.90
2018-12-12T09:34:15.372Z,3.90
2018-12-12T09:36:41.529Z,4.00
2018-12-12T09:39:07.732Z,4.00
2018-12-12T09:41:33.880Z,4.00
2018-12-12T09:44:00.004Z,4.00
2018-12-12T09:46:26.124Z,4.00
2018-12-12T09:48:52.337Z,4.10
2018-12-12T09:51:18.520Z,4.10
2018-12-12T09:53:44.681Z,4.10
2018-12-12T09:56:10.977Z,4.10
2018-12-12T09:58:37.258Z,4.10
2018-12-12T10:01:03.498Z,4.10
2018-12-12T10:03:31.347Z,4.20
2018-12-12T10:05:57.806Z,4.20
2018-12-12T10:08:24.116Z,4.20
2018-12-12T10:10:50.302Z,4.10
2018-12-12T10:13:16.436Z,4.20
2018-12-12T10:15:42.598Z,4.10
2018-12-12T10:18:08.764Z,4.10
2018-12-12T10:20:34.928Z,4.20
2018-12-12T10:23:01.189Z,4.20
2018-12-12T10:25:27.331Z,4.10
2018-12-12T10:27:53.512Z,4.20
2018-12-12T10:30:19.702Z,4.20
2018-12-12T10:32:45.849Z,4.30
2018-12-12T10:35:12.001Z,4.40
2018-12-12T10:37:38.161Z,4.30
2018-12-12T10:40:04.874Z,4.30
2018-12-12T10:42:30.997Z,4.30
2018-12-12T10:44:57.183Z,4.40
2018-12-12T10:47:23.361Z,4.40
2018-12-12T10:49:49.537Z,4.40
2018-12-12T10:52:15.613Z,4.40
2018-12-12T10:54:41.896Z,4.50
2018-12-12T10:57:08.045Z,4.50
2018-12-12T10:59:34.183Z,4.60
2018-12-12T11:02:06.409Z,4.50
2018-12-12T11:04:32.563Z,4.40
2018-12-12T11:06:58.748Z,4.50
2018-12-12T11:09:24.923Z,4.60
2018-12-12T11:11:51.103Z,5.80
2018-12-12T11:14:17.245Z,8.40
2018-12-12T11:16:43.375Z,11.10
2018-12-12T11:19:09.577Z,13.70
2018-12-12T11:21:35.764Z,14.50
2018-12-12T11:24:01.837Z,15.00
2018-12-12T11:26:28.017Z,13.60
2018-12-12T11:28:54.197Z,12.00
2018-12-12T11:31:20.391Z,10.30
2018-12-12T11:33:50.519Z,9.40
2018-12-12T11:36:14.791Z,10.80
2018-12-12T11:38:40.955Z,13.60
2018-12-12T11:41:07.070Z,15.30
2018-12-12T11:43:33.376Z,15.70
2018-12-12T11:45:59.521Z,14.30
2018-12-12T11:48:25.688Z,12.10
2018-12-12T11:50:51.871Z,12.10
2018-12-12T11:53:18.019Z,11.60
2018-12-12T11:55:44.191Z,10.40
2018-12-12T11:58:10.337Z,9.70
2018-12-12T12:00:36.497Z,9.00
2018-12-12T12:03:02.654Z,8.40
2018-12-12T12:05:28.808Z,7.90
2018-12-12T12:07:55.006Z,7.40
2018-12-12T12:10:21.193Z,7.00
2018-12-12T12:12:47.341Z,6.90
2018-12-12T12:15:13.482Z,6.90
2018-12-12T12:17:39.710Z,6.50
2018-12-12T12:20:06.002Z,6.30
2018-12-12T12:22:32.272Z,6.10
2018-12-12T12:24:58.447Z,5.90
2018-12-12T12:27:24.600Z,5.90
2018-12-12T12:29:50.814Z,6.10
2018-12-12T12:32:17.011Z,6.00
2018-12-12T12:34:43.156Z,6.10
2018-12-12T12:37:09.308Z,6.40
2018-12-12T12:39:35.486Z,6.40
2018-12-12T12:42:01.686Z,6.50
2018-12-12T12:44:27.944Z,6.70
2018-12-12T12:46:54.132Z,6.70
2018-12-12T12:49:20.230Z,6.50
2018-12-12T12:51:46.432Z,6.60
2018-12-12T12:54:19.498Z,6.30
2018-12-12T12:56:45.603Z,6.20
2018-12-12T12:59:11.706Z,6.00
2018-12-12T13:01:37.909Z,5.90
2018-12-12T13:04:09.488Z,5.70
2018-12-12T13:06:32.297Z,5.70
2018-12-12T13:08:58.431Z,5.60
2018-12-12T13:11:24.627Z,5.60
2018-12-12T13:13:51.008Z,5.60
2018-12-12T13:16:17.183Z,5.50
2018-12-12T13:18:43.323Z,5.40
2018-12-12T13:21:09.524Z,5.30
2018-12-12T13:23:35.645Z,5.30
2018-12-12T13:28:34.686Z,5.50
2018-12-12T13:31:00.889Z,5.40
2018-12-12T13:33:27.092Z,5.50
2018-12-12T13:35:53.231Z,5.60
2018-12-12T13:38:19.361Z,5.60
2018-12-12T13:40:45.541Z,5.60
2018-12-12T13:43:11.713Z,5.60
2018-12-12T13:45:37.916Z,5.60
2018-12-12T13:48:04.275Z,5.40
2018-12-12T13:50:30.499Z,5.30
2018-12-12T13:52:56.694Z,5.30
2018-12-12T13:55:29.190Z,5.30
2018-12-12T13:57:59.258Z,5.20
2018-12-12T14:00:39.052Z,5.20
2018-12-12T14:03:08.273Z,5.10
2018-12-12T14:05:49.845Z,5.10
2018-12-12T14:08:24.959Z,5.00
2018-12-12T14:10:58.309Z,5.00
2018-12-12T14:13:32.258Z,4.90
2018-12-12T14:16:02.679Z,4.80
2018-12-12T14:18:38.003Z,4.70
2018-12-12T14:21:13.665Z,4.70
2018-12-12T14:23:54.693Z,4.70
2018-12-12T14:26:28.563Z,4.70
2018-12-12T14:29:10.329Z,4.60
2018-12-12T14:31:53.236Z,4.50
2018-12-12T14:34:29.586Z,4.40
2018-12-12T14:37:05.465Z,4.40
2018-12-12T14:39:42.689Z,4.40
2018-12-12T14:42:15.734Z,4.50
2018-12-12T14:44:49.048Z,4.40
2018-12-12T14:47:23.828Z,4.50
2018-12-12T14:50:04.450Z,4.40
2018-12-12T14:52:43.788Z,4.40
2018-12-12T14:55:21.866Z,4.40
2018-12-12T14:57:48.878Z,4.40
2018-12-12T15:00:23.396Z,4.40
2018-12-12T15:03:04.182Z,4.50
2018-12-12T15:05:44.533Z,4.40
2018-12-12T15:08:26.012Z,4.40
2018-12-12T15:11:05.961Z,4.40
2018-12-12T15:13:39.032Z,4.20
2018-12-12T15:16:20.290Z,4.20
2018-12-12T15:18:50.156Z,4.30
2018-12-12T15:21:25.784Z,4.30
2018-12-12T15:23:57.277Z,4.20
2018-12-12T15:26:36.790Z,4.10
2018-12-12T15:29:12.063Z,4.00
2018-12-12T15:31:40.630Z,3.80
2018-12-12T15:34:09.902Z,3.70
2018-12-12T15:36:42.992Z,3.60
2018-12-12T15:39:09.090Z,3.60
2018-12-12T15:41:35.235Z,3.60
2018-12-12T15:44:01.633Z,3.70
2018-12-12T15:46:27.843Z,3.70
2018-12-12T15:48:54.101Z,3.60
2018-12-12T15:51:27.247Z,3.80
2018-12-12T15:53:53.485Z,3.80
2018-12-12T15:56:19.615Z,3.70
2018-12-12T15:58:45.806Z,3.70
2018-12-12T16:01:11.971Z,3.70
2018-12-12T16:03:38.158Z,3.70
2018-12-12T16:06:04.401Z,3.70
2018-12-12T16:08:30.536Z,3.70
2018-12-12T16:10:56.835Z,3.70
2018-12-12T16:13:22.968Z,3.70
2018-12-12T16:15:49.280Z,3.70
2018-12-12T16:18:15.449Z,3.70
2018-12-12T16:20:41.654Z,3.70
2018-12-12T16:23:07.819Z,3.70
2018-12-12T16:25:33.980Z,3.80
2018-12-12T16:28:00.134Z,3.70
2018-12-12T16:30:26.299Z,3.70
2018-12-12T16:32:52.492Z,3.70
2018-12-12T16:35:18.647Z,3.70
2018-12-12T16:37:44.754Z,3.60
2018-12-12T16:40:11.032Z,3.70
2018-12-12T16:42:37.314Z,3.60
2018-12-12T16:45:03.739Z,3.60
2018-12-12T16:47:29.923Z,3.60
2018-12-12T16:49:56.123Z,3.50
2018-12-12T16:52:22.343Z,3.50
2018-12-12T16:54:48.459Z,3.50
2018-12-12T16:57:14.661Z,3.40
2018-12-12T16:59:40.787Z,3.40
2018-12-12T17:02:06.971Z,3.40
2018-12-12T17:04:33.194Z,3.40
2018-12-12T17:06:59.389Z,3.40
2018-12-12T17:09:25.559Z,3.40
2018-12-12T17:11:51.758Z,3.50
2018-12-12T17:14:19.967Z,3.50
2018-12-12T17:16:46.242Z,3.50
2018-12-12T17:19:12.443Z,3.40
2018-12-12T17:21:38.630Z,3.50
2018-12-12T17:24:04.850Z,3.60
2018-12-12T17:26:30.999Z,3.50
2018-12-12T17:28:57.210Z,3.60
2018-12-12T17:31:23.361Z,3.60
2018-12-12T17:33:49.600Z,3.50
2018-12-12T17:36:15.846Z,3.50
2018-12-12T17:38:42.068Z,3.40
2018-12-12T17:41:08.272Z,3.40
2018-12-12T17:43:41.553Z,3.30
2018-12-12T17:46:07.722Z,3.20
2018-12-12T17:48:33.915Z,3.00
2018-12-12T17:51:00.074Z,3.00
2018-12-12T17:53:26.297Z,3.00
2018-12-12T17:55:52.430Z,3.00
2018-12-12T17:58:18.614Z,2.80
2018-12-12T18:00:44.935Z,2.70
2018-12-12T18:03:18.233Z,2.60
2018-12-12T18:05:44.458Z,2.60
2018-12-12T18:08:10.635Z,2.40
2018-12-12T18:10:36.755Z,2.30
2018-12-12T18:13:02.929Z,2.40
2018-12-12T18:15:29.147Z,2.30
2018-12-12T18:17:55.301Z,2.20
2018-12-12T18:20:28.510Z,2.20
2018-12-12T18:22:54.678Z,2.20
2018-12-12T18:25:27.813Z,2.10
2018-12-12T18:27:53.971Z,2.10
2018-12-12T18:30:20.095Z,2.10
2018-12-12T18:32:46.325Z,2.20
2018-12-12T18:35:12.621Z,2.20
2018-12-12T18:37:38.830Z,2.20
2018-12-12T18:40:05.108Z,2.10
2018-12-12T18:42:38.281Z,2.10
2018-12-12T18:45:04.761Z,2.10
2018-12-12T18:47:30.962Z,2.00
2018-12-12T18:49:57.118Z,1.90
2018-12-12T18:52:23.491Z,1.90
2018-12-12T18:54:49.672Z,1.80
2018-12-12T18:57:15.978Z,1.80
2018-12-12T18:59:42.229Z,1.70
2018-12-12T19:02:08.438Z,1.70
2018-12-12T19:04:34.716Z,1.60
2018-12-12T19:07:00.839Z,1.60
2018-12-12T19:09:27.118Z,1.60
2018-12-12T19:11:53.307Z,1.50
2018-12-12T19:14:19.469Z,1.50
2018-12-12T19:16:52.580Z,1.50
2018-12-12T19:19:18.808Z,1.60
2018-12-12T19:21:45.057Z,1.60
2018-12-12T19:24:11.249Z,1.50
2018-12-12T19:26:44.519Z,1.50
2018-12-12T19:29:12.093Z,1.40
2018-12-12T19:31:40.578Z,1.40
2018-12-12T19:34:06.920Z,1.30
2018-12-12T19:36:33.068Z,1.40
2018-12-12T19:38:59.340Z,1.30
2018-12-12T19:41:25.537Z,1.30
2018-12-12T19:43:51.791Z,1.30
2018-12-12T19:46:18.110Z,1.40
2018-12-12T19:48:44.346Z,1.40
2018-12-12T19:51:10.744Z,1.40
2018-12-12T19:53:36.937Z,1.40
2018-12-12T19:56:10.229Z,1.40
2018-12-12T19:58:36.438Z,1.30
2018-12-12T20:01:02.730Z,1.20
2018-12-12T20:03:29.011Z,1.20
2018-12-12T20:05:55.242Z,1.10
2018-12-12T20:08:21.441Z,1.20
2018-12-12T20:10:47.643Z,1.20
2018-12-12T20:13:13.844Z,1.10
2018-12-12T20:15:44.217Z,1.10
2018-12-12T20:18:10.405Z,1.10
2018-12-12T20:20:36.767Z,1.10
2018-12-12T20:23:02.994Z,1.00
2018-12-12T20:25:29.128Z,1.00
2018-12-12T20:27:55.317Z,1.10
2018-12-12T20:30:21.564Z,1.10
2018-12-12T20:32:47.947Z,1.10
2018-12-12T20:35:14.154Z,1.10
2018-12-12T20:37:40.341Z,1.00
2018-12-12T20:40:06.759Z,0.90
2018-12-12T20:42:33.010Z,0.90
2018-12-12T20:44:59.275Z,0.80
2018-12-12T20:47:25.419Z,0.80
2018-12-12T20:49:51.565Z,0.50
2018-12-12T20:52:17.700Z,0.40
2018-12-12T20:54:43.816Z,0.30
2018-12-12T20:57:09.990Z,0.30
2018-12-12T20:59:36.166Z,0.40
2018-12-12T21:02:02.424Z,0.60
2018-12-12T21:04:28.571Z,0.60
2018-12-12T21:06:54.691Z,0.70
2018-12-12T21:09:27.863Z,0.60
2018-12-12T21:11:54.028Z,0.50
2018-12-12T21:14:20.218Z,0.60
2018-12-12T21:16:46.579Z,0.50
2018-12-12T21:19:19.970Z,0.50
2018-12-12T21:21:46.244Z,0.60
2018-12-12T21:24:12.413Z,0.60
2018-12-12T21:26:38.569Z,0.60
2018-12-12T21:29:04.720Z,0.70
2018-12-12T21:31:30.887Z,0.80
2018-12-12T21:33:57.165Z,0.80
2018-12-12T21:36:23.357Z,0.70
2018-12-12T21:38:49.474Z,0.60
2018-12-12T21:41:15.595Z,0.70
2018-12-12T21:43:41.766Z,0.80
2018-12-12T21:46:07.900Z,0.80
2018-12-12T21:48:34.045Z,0.80
2018-12-12T21:51:00.190Z,0.80
2018-12-12T21:53:26.365Z,0.80
2018-12-12T21:55:52.554Z,0.90
2018-12-12T21:58:18.701Z,0.90
2018-12-12T22:00:44.866Z,0.80
2018-12-12T22:03:11.007Z,0.80
2018-12-12T22:05:37.250Z,0.80
2018-12-12T22:08:03.352Z,0.80
2018-12-12T22:10:29.532Z,0.80
2018-12-12T22:12:55.748Z,0.90
2018-12-12T22:15:21.972Z,1.00
2018-12-12T22:17:48.108Z,1.00
2018-12-12T22:20:14.277Z,1.00
2018-12-12T22:22:40.430Z,0.90
2018-12-12T22:25:06.734Z,0.90
2018-12-12T22:27:32.911Z,0.80
2018-12-12T22:29:59.105Z,0.80
2018-12-12T22:32:25.275Z,0.80
2018-12-12T22:34:51.503Z,0.80
2018-12-12T22:37:17.683Z,0.70
2018-12-12T22:39:43.856Z,0.80
2018-12-12T22:42:10.049Z,0.70
2018-12-12T22:44:36.256Z,0.60
2018-12-12T22:47:02.627Z,0.60
2018-12-12T22:49:28.809Z,0.40
2018-12-12T22:51:55.173Z,0.40
2018-12-12T22:54:21.317Z,0.40
2018-12-12T22:56:47.500Z,0.50
2018-12-12T22:59:13.677Z,0.60
2018-12-12T23:01:39.815Z,0.70
2018-12-12T23:04:05.979Z,0.70
2018-12-12T23:06:32.123Z,0.80
2018-12-12T23:08:58.311Z,0.70
2018-12-12T23:11:25.438Z,0.80
2018-12-12T23:13:51.794Z,0.80
2018-12-12T23:16:17.976Z,0.80
2018-12-12T23:18:44.245Z,0.70
2018-12-12T23:21:10.368Z,0.70
2018-12-12T23:23:36.533Z,0.70
2018-12-12T23:26:09.918Z,0.80
2018-12-12T23:28:36.128Z,0.70
2018-12-12T23:31:02.372Z,0.70
2018-12-12T23:33:28.549Z,0.80
2018-12-12T23:35:54.784Z,0.80
2018-12-12T23:38:20.938Z,0.80
2018-12-12T23:40:47.112Z,0.80
2018-12-12T23:43:13.384Z,0.70
2018-12-12T23:45:39.574Z,0.70
2018-12-12T23:48:05.765Z,0.70
2018-12-12T23:50:31.980Z,0.70
2018-12-12T23:52:58.153Z,0.70
2018-12-12T23:55:24.349Z,0.60
2018-12-12T23:57:50.695Z,0.60
